Stevensville, MT (59870)

3:06 PM MDT on September 04, 2015 (GMT -0600)
SteviBigSky | | Change Station
CLOSE
Current Station
Personal Weather Station
Location: Stevensville, MT
Elevation: 3415 ft
Nearby Weather Stations

Elev 3415 ft 46.49 °N, 114.07 °W | Updated 6 seconds ago

Overcast
Overcast
59.9 °F
Feels Like 59.9 °F
N
3.4
Wind Variable Wind from NNE
Gusts 4.9 mph

Today
High -- | Low -- °F
--% Chance of Precip.
Yesterday
High -- | Low -- °F
Precip. -- in
6:59 AM 8:09 PM
Waning Gibbous, 56% visible
Pressure 29.94 in
Visibility 10.0 miles
Clouds Mostly Cloudy 3200 ft
Dew Point 47 °F
Humidity 62%
Rainfall 0.00 in
Snow Depth Not available.
UV 4.0 out of 12
Pollen 4.50 out of 12
Air Quality Not available.
Flu Activity Not available.
METAR KMSO 042053Z 16008G16KT 10SM BKN032 16/07 A2993 RMK AO2 SLP137 T01610067 58013
Pressure 29.94 in
Visibility 10.0 miles
Clouds Mostly Cloudy 3200 ft
Dew Point 47 °F
Humidity 62%
Rainfall 0.00 in
Snow Depth Not available.
UV 4.0 out of 12
Pollen 4.50 out of 12
Air Quality Not available.
Flu Activity Not available.
METAR KMSO 042053Z 16008G16KT 10SM BKN032 16/07 A2993 RMK AO2 SLP137 T01610067 58013

10-Day Weather Forecast

×

Almanac

Astronomy

Sep. 04, 2015 Rise Set
Actual Time
Civil Twilight
Nautical Twilight
Astronomical Twilight
Moon
Length of Visible Light
Length of Day
Tomorrow will be .
, % of the Moon is Illuminated

Today's Extremes

State Highs State Lows

Community

WunderPhotos

Upload Photos

1,852,290 photos uploaded!

WunderBlogs® & News

Nearby

Air Quality

  Air Quality AQ Index Pollutant
Not available.

Snow Depth

Station Depth Elevation

Earthquake Activity

City Distance Mag. Time & Date
Minimum magnitude displayed is 2.5.

Coastal Water Temperatures

Place Temperature

Stations

Nearby Weather Stations

Station Location Temp. Windchill Dew Point Humidity Wind Precip. Elev Updated Type